Speegleville, Texas
Current Conditions -  °F | °C
As of 7:21 AM on Tuesday 21 Oct 2014 (Local Time) from KACT Reporting Station
Haze Haze  
Wind Chill: 56°   Ceiling: Unl
Heat Index: 56°   Visibility: 3mi
Dew Point: 55°   Wind: 5mph
Humidity: 97%   Direction: 350°N
Pressure: 30.08"   Gusts: NA
Location:  31.5356°N, 97.1921°W
Report Text: KACT 211221Z 35004KT 3SM BR CLR 13/13 A3008 RMK AO2 T01330128 $
Loading
Personal Weather Stations






























Interactive Weather Map New forecast layout! Learn more

10-Day Weather Forecast

Advertisements
Track Severe Weather on mobile